Time;durP1;ratioP1;P1;durP2;ratioP2;P2;SDS_P1;SDS_P2;PMS_P1;PMS_P2;Temp;Humidity;BMP_temperature;BMP_pressure;BME280_temperature;BME280_humidity;BME280_pressure;Samples;Min_cycle;Max_cycle;Signal;HPM_P1;HPM_P2
2022/01/13 00:00:48;;;;;;;;;;;5.50;99.90;;;;;;5087067;28;20300;-54
2022/01/13 00:03:14;;;;;;;;;;;5.50;99.90;;;;;;5078982;28;19930;-51
2022/01/13 00:05:40;;;;;;;;;;;5.50;99.90;;;;;;5085971;28;19920;-52
2022/01/13 00:08:06;;;;;;;;;;;5.60;99.90;;;;;;5080762;28;19916;-51
2022/01/13 00:10:32;;;;;;;;;;;5.50;99.90;;;;;;5055066;28;19942;-50
2022/01/13 00:13:08;;;;;;;;;;;5.50;99.90;;;;;;5074536;28;19916;-53
2022/01/13 00:15:51;;;;;;;;;;;5.50;99.90;;;;;;5076852;28;19993;-53
2022/01/13 00:18:49;;;;;;;;;;;5.50;99.90;;;;;;5085921;28;20102;-54
2022/01/13 00:21:29;;;;;;;;;;;5.50;99.90;;;;;;5068967;28;20081;-52
2022/01/13 00:23:59;;;;;;;;;;;5.50;99.90;;;;;;5068274;28;19920;-54
2022/01/13 00:26:27;;;;;;;;;;;5.50;99.90;;;;;;5068912;28;19939;-52
2022/01/13 00:28:54;;;;;;;;;;;5.50;99.90;;;;;;5047167;28;19977;-52
2022/01/13 00:31:27;;;;;;;;;;;5.50;99.90;;;;;;5047118;28;20116;-54
2022/01/13 00:33:57;;;;;;;;;;;5.50;99.90;;;;;;5078060;28;20398;-51
2022/01/13 00:36:24;;;;;;;;;;;5.50;99.90;;;;;;5068026;28;19993;-51
2022/01/13 00:38:50;;;;;;;;;;;5.50;99.90;;;;;;5047170;28;20368;-50
2022/01/13 00:41:15;;;;;;;;;;;5.50;99.90;;;;;;5062851;28;19934;-55
2022/01/13 00:43:42;;;;;;;;;;;5.50;99.90;;;;;;5078920;28;19916;-51
2022/01/13 00:46:09;;;;;;;;;;;5.50;99.90;;;;;;5065205;28;19924;-51
2022/01/13 00:48:35;;;;;;;;;;;5.40;99.90;;;;;;5049355;28;19924;-51
2022/01/13 00:51:01;;;;;;;;;;;5.40;99.90;;;;;;5065190;28;19923;-53
2022/01/13 00:53:27;;;;;;;;;;;5.40;99.90;;;;;;5047875;28;20009;-52
2022/01/13 00:55:59;;;;;;;;;;;5.40;99.90;;;;;;5060847;28;20434;-54
2022/01/13 00:58:26;;;;;;;;;;;5.40;99.90;;;;;;5043848;28;20136;-52
2022/01/13 01:00:53;;;;;;;;;;;5.40;99.90;;;;;;5064192;28;20282;-52
2022/01/13 01:03:21;;;;;;;;;;;5.40;99.90;;;;;;5065874;28;19924;-53
2022/01/13 01:05:47;;;;;;;;;;;5.40;99.90;;;;;;5047882;28;20251;-52
2022/01/13 01:08:13;;;;;;;;;;;5.30;99.90;;;;;;5049516;28;19927;-52
2022/01/13 01:10:39;;;;;;;;;;;5.30;99.90;;;;;;5064954;28;19924;-51
2022/01/13 01:13:14;;;;;;;;;;;5.30;99.90;;;;;;5069026;28;19916;-51
2022/01/13 01:15:44;;;;;;;;;;;5.30;99.90;;;;;;5067408;28;19927;-51
2022/01/13 01:18:24;;;;;;;;;;;5.30;99.90;;;;;;5045234;28;19967;-55
2022/01/13 01:21:05;;;;;;;;;;;5.30;99.90;;;;;;5067664;28;19938;-52
2022/01/13 01:23:36;;;;;;;;;;;5.30;99.90;;;;;;5047767;28;20290;-52
2022/01/13 01:26:47;;;;;;;;;;;5.30;99.90;;;;;;5050385;28;19920;-55
2022/01/13 01:29:02;;;;;;;;;;;5.30;99.90;;;;;;5052273;28;19928;-54
2022/01/13 01:31:31;;;;;;;;;;;5.30;99.90;;;;;;5066995;28;19923;-53
2022/01/13 01:34:32;;;;;;;;;;;5.30;99.90;;;;;;5062406;28;20204;-53
2022/01/13 01:36:46;;;;;;;;;;;5.30;99.90;;;;;;5066320;28;20003;-52
2022/01/13 01:39:12;;;;;;;;;;;5.30;99.90;;;;;;5051200;28;19988;-52
2022/01/13 01:41:40;;;;;;;;;;;5.30;99.90;;;;;;5067696;28;19932;-51
2022/01/13 01:44:29;;;;;;;;;;;5.20;99.90;;;;;;5033398;28;19917;-53
2022/01/13 01:46:55;;;;;;;;;;;5.20;99.90;;;;;;5049901;28;19924;-51
2022/01/13 01:49:24;;;;;;;;;;;5.20;99.90;;;;;;5069061;28;19921;-53
2022/01/13 01:51:51;;;;;;;;;;;5.20;99.90;;;;;;5050438;28;19916;-53
2022/01/13 01:54:17;;;;;;;;;;;5.20;99.90;;;;;;5053346;28;20023;-52
2022/01/13 01:56:43;;;;;;;;;;;5.20;99.90;;;;;;5051161;28;20010;-52
2022/01/13 01:59:12;;;;;;;;;;;5.20;99.90;;;;;;5068895;28;19920;-55
2022/01/13 02:01:38;;;;;;;;;;;5.20;99.90;;;;;;5054375;28;19928;-53
2022/01/13 02:04:05;;;;;;;;;;;5.20;99.90;;;;;;5070071;28;20386;-52
2022/01/13 02:06:31;;;;;;;;;;;5.20;99.90;;;;;;5071661;28;19964;-54
2022/01/13 02:08:56;;;;;;;;;;;5.20;99.90;;;;;;5070432;28;19956;-52
2022/01/13 02:11:24;;;;;;;;;;;5.20;99.90;;;;;;5052718;28;19920;-55
2022/01/13 02:13:53;;;;;;;;;;;5.20;99.90;;;;;;5054154;28;19916;-52
2022/01/13 02:19:00;;;;;;;;;;;5.20;99.90;;;;;;5038546;28;19920;-52
2022/01/13 02:21:26;;;;;;;;;;;5.20;99.90;;;;;;5053924;28;20262;-51
2022/01/13 02:23:52;;;;;;;;;;;5.20;99.90;;;;;;5068825;28;20015;-54
2022/01/13 02:26:18;;;;;;;;;;;5.20;99.90;;;;;;5049177;28;19932;-52
2022/01/13 02:28:44;;;;;;;;;;;5.20;99.90;;;;;;5084246;28;19920;-52
2022/01/13 02:31:11;;;;;;;;;;;5.20;99.90;;;;;;5045395;28;20292;-53
2022/01/13 02:33:37;;;;;;;;;;;5.20;99.90;;;;;;5069875;28;20011;-52
2022/01/13 02:36:04;;;;;;;;;;;5.20;99.90;;;;;;5068320;28;19916;-51
2022/01/13 02:38:29;;;;;;;;;;;5.20;99.90;;;;;;5084732;28;20381;-55
2022/01/13 02:40:56;;;;;;;;;;;5.20;99.90;;;;;;5062596;28;19916;-54
2022/01/13 02:43:22;;;;;;;;;;;5.20;99.90;;;;;;5063295;28;20400;-52
2022/01/13 02:46:05;;;;;;;;;;;5.20;99.90;;;;;;5081363;28;19931;-52
2022/01/13 02:48:32;;;;;;;;;;;5.10;99.90;;;;;;5036905;28;19920;-55
2022/01/13 02:50:58;;;;;;;;;;;5.20;99.90;;;;;;5029908;28;19924;-52
2022/01/13 02:53:24;;;;;;;;;;;5.20;99.90;;;;;;5067603;28;19927;-53
2022/01/13 02:55:50;;;;;;;;;;;5.20;99.90;;;;;;5051045;28;19920;-54
2022/01/13 02:58:17;;;;;;;;;;;5.20;99.90;;;;;;5086321;28;19916;-54
2022/01/13 03:00:43;;;;;;;;;;;5.20;99.90;;;;;;5068423;28;19924;-52
2022/01/13 03:03:09;;;;;;;;;;;5.20;99.90;;;;;;5064680;28;19935;-52
2022/01/13 03:05:38;;;;;;;;;;;5.20;99.90;;;;;;5050408;28;19917;-51
2022/01/13 03:08:05;;;;;;;;;;;5.20;99.90;;;;;;5079903;28;19928;-51
2022/01/13 03:10:30;;;;;;;;;;;5.30;99.90;;;;;;5069554;28;19931;-51
2022/01/13 03:12:58;;;;;;;;;;;5.30;99.90;;;;;;5071240;28;20422;-51
2022/01/13 03:15:23;;;;;;;;;;;5.30;99.90;;;;;;5084774;28;19927;-51
2022/01/13 03:17:49;;;;;;;;;;;5.20;99.90;;;;;;5049307;28;19920;-51
2022/01/13 03:20:15;;;;;;;;;;;5.30;99.90;;;;;;5069953;28;20359;-54
2022/01/13 03:22:41;;;;;;;;;;;5.30;99.90;;;;;;5044382;28;20162;-52
2022/01/13 03:25:07;;;;;;;;;;;5.30;99.90;;;;;;5065658;28;20015;-51
2022/01/13 03:27:36;;;;;;;;;;;5.30;99.90;;;;;;5070069;28;20323;-53
2022/01/13 03:30:04;;;;;;;;;;;5.30;99.90;;;;;;5050715;28;20369;-55
2022/01/13 03:32:30;;;;;;;;;;;5.30;99.90;;;;;;5067685;28;19920;-51
2022/01/13 03:34:56;;;;;;;;;;;5.30;99.90;;;;;;5098713;28;19923;-55
2022/01/13 03:37:22;;;;;;;;;;;5.30;99.90;;;;;;5062396;28;20374;-54
2022/01/13 03:39:54;;;;;;;;;;;5.30;99.90;;;;;;5066891;28;19924;-53
2022/01/13 03:42:53;;;;;;;;;;;5.30;99.90;;;;;;5052178;28;19926;-50
2022/01/13 03:45:21;;;;;;;;;;;5.30;99.90;;;;;;5094012;28;19924;-53
2022/01/13 03:47:47;;;;;;;;;;;5.30;99.90;;;;;;5096300;28;20344;-53
2022/01/13 03:50:13;;;;;;;;;;;5.30;99.90;;;;;;5100929;28;20075;-53
2022/01/13 03:52:58;;;;;;;;;;;5.40;99.90;;;;;;5068088;28;19927;-55
2022/01/13 03:55:36;;;;;;;;;;;5.30;99.90;;;;;;5063848;28;20021;-52
2022/01/13 03:58:23;;;;;;;;;;;5.30;99.90;;;;;;5063504;28;19920;-52
2022/01/13 04:00:55;;;;;;;;;;;5.30;99.90;;;;;;5065168;28;19927;-53
2022/01/13 04:03:20;;;;;;;;;;;5.30;99.90;;;;;;5069224;28;20015;-53
2022/01/13 04:06:05;;;;;;;;;;;5.30;99.90;;;;;;5068071;28;20011;-51
2022/01/13 04:08:31;;;;;;;;;;;5.30;99.90;;;;;;5067633;28;20288;-52
2022/01/13 04:10:57;;;;;;;;;;;5.30;99.90;;;;;;5068534;28;19970;-55
2022/01/13 04:13:43;;;;;;;;;;;5.30;99.90;;;;;;5068224;28;20287;-51
2022/01/13 04:16:09;;;;;;;;;;;5.30;99.90;;;;;;5068417;28;19970;-52
2022/01/13 04:18:35;;;;;;;;;;;5.30;99.90;;;;;;5067602;28;19920;-51
2022/01/13 04:21:01;;;;;;;;;;;5.20;99.90;;;;;;5094936;28;20416;-51
2022/01/13 04:23:36;;;;;;;;;;;5.30;99.90;;;;;;5043195;28;19920;-52
2022/01/13 04:26:05;;;;;;;;;;;5.30;99.90;;;;;;5058129;28;19916;-54
2022/01/13 04:28:32;;;;;;;;;;;4.90;99.90;;;;;;5048785;28;19920;-54
2022/01/13 04:31:00;;;;;;;;;;;5.20;99.90;;;;;;5066873;28;19927;-52
2022/01/13 04:33:27;;;;;;;;;;;5.20;99.90;;;;;;5065648;28;19952;-53
2022/01/13 04:35:52;;;;;;;;;;;5.20;99.90;;;;;;5066750;28;19986;-52
2022/01/13 04:38:18;;;;;;;;;;;5.20;99.90;;;;;;5068482;28;20475;-53
2022/01/13 04:40:46;;;;;;;;;;;5.20;99.90;;;;;;5049272;28;20374;-51
2022/01/13 04:43:12;;;;;;;;;;;5.20;99.90;;;;;;5081174;28;20462;-56
2022/01/13 04:45:38;;;;;;;;;;;5.20;99.90;;;;;;5067934;28;19987;-54
2022/01/13 04:48:04;;;;;;;;;;;5.20;99.90;;;;;;5051416;28;19967;-53
2022/01/13 04:50:30;;;;;;;;;;;5.20;99.90;;;;;;5065502;28;20205;-52
2022/01/13 04:52:56;;;;;;;;;;;5.20;99.90;;;;;;5047176;28;20010;-55
2022/01/13 04:55:25;;;;;;;;;;;5.20;99.90;;;;;;5049284;28;19962;-53
2022/01/13 04:57:51;;;;;;;;;;;5.30;99.90;;;;;;5068335;28;19966;-52
2022/01/13 05:00:17;;;;;;;;;;;5.20;99.90;;;;;;5047179;28;19963;-53
2022/01/13 05:02:43;;;;;;;;;;;5.30;99.90;;;;;;5066247;28;19977;-52
2022/01/13 05:05:09;;;;;;;;;;;5.30;99.90;;;;;;5048510;28;20557;-52
2022/01/13 05:07:35;;;;;;;;;;;5.30;99.90;;;;;;5063515;28;19935;-53
2022/01/13 05:10:00;;;;;;;;;;;5.30;99.90;;;;;;5064812;28;19988;-51
2022/01/13 05:12:33;;;;;;;;;;;5.30;99.90;;;;;;5077984;28;20385;-52
2022/01/13 05:15:04;;;;;;;;;;;5.30;99.90;;;;;;5047135;28;19927;-53
2022/01/13 05:20:22;;;;;;;;;;;5.30;99.90;;;;;;5026890;28;19924;-53
2022/01/13 05:22:48;;;;;;;;;;;5.30;99.90;;;;;;5045404;28;19947;-51
2022/01/13 05:25:15;;;;;;;;;;;5.30;99.90;;;;;;5052422;28;19923;-51
2022/01/13 05:27:41;;;;;;;;;;;5.30;99.90;;;;;;5078790;28;19928;-56
2022/01/13 05:30:08;;;;;;;;;;;5.30;99.90;;;;;;5064640;28;19916;-53
2022/01/13 05:32:33;;;;;;;;;;;5.30;99.90;;;;;;5034804;28;19916;-54
2022/01/13 05:34:59;;;;;;;;;;;5.30;99.90;;;;;;5065488;28;20030;-52
2022/01/13 05:37:25;;;;;;;;;;;5.30;99.90;;;;;;5048934;28;19916;-54
2022/01/13 05:39:52;;;;;;;;;;;5.30;99.90;;;;;;5063925;28;19920;-52
2022/01/13 05:42:18;;;;;;;;;;;5.30;99.90;;;;;;5064823;28;20003;-52
2022/01/13 05:44:43;;;;;;;;;;;5.30;99.90;;;;;;5049552;28;19998;-51
2022/01/13 05:47:10;;;;;;;;;;;5.30;99.90;;;;;;5064474;28;20701;-54
2022/01/13 05:49:38;;;;;;;;;;;5.30;99.90;;;;;;5051138;28;20191;-51
2022/01/13 05:52:04;;;;;;;;;;;5.30;99.90;;;;;;5063241;28;19924;-52
2022/01/13 05:54:30;;;;;;;;;;;5.30;99.90;;;;;;5063019;28;20126;-52
2022/01/13 05:56:56;;;;;;;;;;;5.30;99.90;;;;;;5062886;28;19916;-52
2022/01/13 05:59:23;;;;;;;;;;;5.30;99.90;;;;;;5050374;28;19959;-55
2022/01/13 06:01:48;;;;;;;;;;;5.30;99.90;;;;;;5062058;28;19920;-54
2022/01/13 06:04:14;;;;;;;;;;;5.30;99.90;;;;;;5083491;28;20049;-52
2022/01/13 06:06:40;;;;;;;;;;;5.30;99.90;;;;;;5048646;28;20336;-52
2022/01/13 06:09:05;;;;;;;;;;;5.30;99.90;;;;;;5080523;28;20011;-55
2022/01/13 06:11:38;;;;;;;;;;;5.30;99.90;;;;;;5049421;28;19942;-55
2022/01/13 06:14:04;;;;;;;;;;;5.30;99.90;;;;;;5065821;28;19924;-56
2022/01/13 06:16:30;;;;;;;;;;;5.40;99.90;;;;;;5047190;28;19931;-52
2022/01/13 06:18:56;;;;;;;;;;;5.40;99.90;;;;;;5064272;28;20039;-55
2022/01/13 06:21:22;;;;;;;;;;;5.40;99.90;;;;;;5063423;28;20010;-54
2022/01/13 06:23:47;;;;;;;;;;;5.40;99.90;;;;;;5051506;28;19927;-52
2022/01/13 06:26:13;;;;;;;;;;;5.40;99.90;;;;;;5046225;28;21400;-51
2022/01/13 06:28:39;;;;;;;;;;;5.40;99.90;;;;;;5014054;28;20363;-54
2022/01/13 06:31:26;;;;;;;;;;;5.50;99.90;;;;;;5031433;28;20017;-54
2022/01/13 06:33:52;;;;;;;;;;;5.50;99.90;;;;;;5064399;28;19950;-51
2022/01/13 06:36:18;;;;;;;;;;;5.50;99.90;;;;;;5048439;28;20342;-55
2022/01/13 06:38:48;;;;;;;;;;;5.50;99.90;;;;;;5048289;28;20354;-51
2022/01/13 06:41:17;;;;;;;;;;;5.50;99.90;;;;;;5066119;28;19920;-52
2022/01/13 06:43:43;;;;;;;;;;;5.50;99.90;;;;;;5029068;28;19924;-51
2022/01/13 06:46:11;;;;;;;;;;;5.60;99.90;;;;;;5051131;28;20184;-54
2022/01/13 06:48:36;;;;;;;;;;;5.60;99.90;;;;;;5049957;28;19924;-52
2022/01/13 06:51:02;;;;;;;;;;;5.60;99.90;;;;;;5034311;28;19924;-50
2022/01/13 06:53:28;;;;;;;;;;;5.60;99.90;;;;;;5068146;28;19916;-53
2022/01/13 06:55:54;;;;;;;;;;;5.60;99.90;;;;;;5053068;28;19959;-54
2022/01/13 06:58:28;;;;;;;;;;;5.60;99.90;;;;;;5036780;28;19973;-53
2022/01/13 07:00:54;;;;;;;;;;;5.60;99.90;;;;;;5052314;28;20095;-51
2022/01/13 07:03:20;;;;;;;;;;;5.70;99.90;;;;;;5068104;28;20007;-50
2022/01/13 07:05:46;;;;;;;;;;;5.70;99.90;;;;;;5066792;28;20211;-52
2022/01/13 07:08:12;;;;;;;;;;;5.70;99.90;;;;;;5051535;28;20010;-48
2022/01/13 07:10:38;;;;;;;;;;;5.70;99.90;;;;;;5051588;28;19999;-52
2022/01/13 07:13:04;;;;;;;;;;;5.70;99.90;;;;;;5035240;28;20158;-50
2022/01/13 07:15:31;;;;;;;;;;;5.70;99.90;;;;;;5066742;28;19969;-52
2022/01/13 07:17:57;;;;;;;;;;;5.70;99.90;;;;;;5065045;28;19920;-52
2022/01/13 07:20:24;;;;;;;;;;;5.70;99.90;;;;;;5048337;28;19932;-50
2022/01/13 07:22:51;;;;;;;;;;;5.70;99.90;;;;;;5009429;28;1180139;-48
2022/01/13 07:25:17;;;;;;;;;;;5.70;99.90;;;;;;5067616;28;20429;-52
2022/01/13 07:27:43;;;;;;;;;;;5.70;99.90;;;;;;5066741;28;19931;-49
2022/01/13 07:30:10;;;;;;;;;;;5.80;99.90;;;;;;5047232;28;19932;-48
2022/01/13 07:32:36;;;;;;;;;;;5.80;99.90;;;;;;5048429;28;20022;-50
2022/01/13 07:35:02;;;;;;;;;;;5.70;99.90;;;;;;5031278;28;19963;-48
2022/01/13 07:37:28;;;;;;;;;;;5.80;99.90;;;;;;5080310;28;19916;-49
2022/01/13 07:39:54;;;;;;;;;;;5.80;99.90;;;;;;5062975;28;20333;-51
2022/01/13 07:42:23;;;;;;;;;;;5.80;99.90;;;;;;5034450;28;19927;-51
2022/01/13 07:44:48;;;;;;;;;;;5.80;99.90;;;;;;5067126;28;19920;-52
2022/01/13 07:47:14;;;;;;;;;;;5.80;99.90;;;;;;5064860;28;20029;-52
2022/01/13 07:49:46;;;;;;;;;;;5.80;99.90;;;;;;5065751;28;19978;-50
2022/01/13 07:52:12;;;;;;;;;;;5.80;99.90;;;;;;5056166;28;19916;-50
2022/01/13 07:54:38;;;;;;;;;;;5.80;99.90;;;;;;5050136;28;20007;-51
2022/01/13 07:57:03;;;;;;;;;;;5.90;99.90;;;;;;5029345;28;19920;-50
2022/01/13 07:59:30;;;;;;;;;;;5.90;99.90;;;;;;5067424;28;19920;-51
2022/01/13 08:01:58;;;;;;;;;;;5.90;99.90;;;;;;5051753;28;19920;-50
2022/01/13 08:04:23;;;;;;;;;;;5.80;99.90;;;;;;5035649;28;20402;-51
2022/01/13 08:06:49;;;;;;;;;;;5.90;99.90;;;;;;5047949;28;19930;-50
2022/01/13 08:09:15;;;;;;;;;;;5.90;99.90;;;;;;5066686;28;19916;-50
2022/01/13 08:11:41;;;;;;;;;;;5.90;99.90;;;;;;5041807;28;19923;-52
2022/01/13 08:14:06;;;;;;;;;;;5.90;99.90;;;;;;5051380;28;19917;-48
2022/01/13 08:16:35;;;;;;;;;;;5.90;99.90;;;;;;5068614;28;20459;-52
2022/01/13 08:21:46;;;;;;;;;;;5.90;99.90;;;;;;5048214;28;19924;-52
2022/01/13 08:24:11;;;;;;;;;;;6.00;99.90;;;;;;5096277;27;20011;-51
2022/01/13 08:26:37;;;;;;;;;;;5.90;99.90;;;;;;5037285;28;19942;-51
2022/01/13 08:29:04;;;;;;;;;;;6.00;99.90;;;;;;5101018;27;19920;-52
2022/01/13 08:31:33;;;;;;;;;;;6.00;99.90;;;;;;5052399;28;19956;-50
2022/01/13 08:33:58;;;;;;;;;;;6.00;99.90;;;;;;5064065;28;20255;-52
2022/01/13 08:36:24;;;;;;;;;;;6.00;99.90;;;;;;5083948;28;19927;-50
2022/01/13 08:38:50;;;;;;;;;;;6.00;99.90;;;;;;5070771;28;20193;-50
2022/01/13 08:41:16;;;;;;;;;;;6.00;99.90;;;;;;5085344;28;19951;-50
2022/01/13 08:43:42;;;;;;;;;;;6.00;99.90;;;;;;5051307;28;19982;-49
2022/01/13 08:46:08;;;;;;;;;;;6.00;99.90;;;;;;5056567;28;20378;-48
2022/01/13 08:48:35;;;;;;;;;;;6.00;99.90;;;;;;5086192;28;20374;-51
2022/01/13 08:51:10;;;;;;;;;;;6.00;99.90;;;;;;5086220;28;19920;-50
2022/01/13 08:53:38;;;;;;;;;;;6.00;99.90;;;;;;5052535;28;19915;-52
2022/01/13 08:56:04;;;;;;;;;;;6.00;99.90;;;;;;5084036;28;19979;-49
2022/01/13 08:58:30;;;;;;;;;;;6.00;99.90;;;;;;5087751;28;19916;-50
2022/01/13 09:00:56;;;;;;;;;;;6.00;99.90;;;;;;5083897;28;19927;-49
2022/01/13 09:03:22;;;;;;;;;;;6.00;99.90;;;;;;5088180;28;20312;-49
2022/01/13 09:05:48;;;;;;;;;;;6.10;99.90;;;;;;5050399;28;19916;-50
2022/01/13 09:08:14;;;;;;;;;;;6.10;99.90;;;;;;5072195;28;19924;-52
2022/01/13 09:10:41;;;;;;;;;;;6.10;99.90;;;;;;5084049;28;20340;-51
2022/01/13 09:13:08;;;;;;;;;;;6.10;99.90;;;;;;5081616;28;20362;-49
2022/01/13 09:15:39;;;;;;;;;;;6.10;99.90;;;;;;5071046;28;20322;-49
2022/01/13 09:18:30;;;;;;;;;;;6.10;99.90;;;;;;5084351;28;20303;-48
2022/01/13 09:20:56;;;;;;;;;;;6.10;99.90;;;;;;5070929;28;19947;-50
2022/01/13 09:23:22;;;;;;;;;;;6.10;99.90;;;;;;5077220;28;20005;-50
2022/01/13 09:25:48;;;;;;;;;;;6.10;99.90;;;;;;5068581;28;20373;-48
2022/01/13 09:28:13;;;;;;;;;;;6.10;99.90;;;;;;5063548;28;19925;-48
2022/01/13 09:30:39;;;;;;;;;;;6.20;99.90;;;;;;5044739;28;19926;-52
2022/01/13 09:33:06;;;;;;;;;;;6.20;99.90;;;;;;5064307;28;19931;-51
2022/01/13 09:35:32;;;;;;;;;;;6.20;99.90;;;;;;5066924;28;19994;-50
2022/01/13 09:37:58;;;;;;;;;;;6.20;99.90;;;;;;5046162;28;19955;-48
2022/01/13 09:40:24;;;;;;;;;;;6.30;99.90;;;;;;5045299;28;20357;-50
2022/01/13 09:42:49;;;;;;;;;;;6.30;99.90;;;;;;5062405;28;20258;-49
2022/01/13 09:45:16;;;;;;;;;;;6.30;99.90;;;;;;5064660;28;19924;-49
2022/01/13 09:47:43;;;;;;;;;;;6.30;99.90;;;;;;5044834;28;19924;-49
2022/01/13 09:50:11;;;;;;;;;;;6.30;99.90;;;;;;5066088;28;19916;-52
2022/01/13 09:52:37;;;;;;;;;;;6.30;99.90;;;;;;5060442;28;19916;-52
2022/01/13 09:55:07;;;;;;;;;;;6.30;99.90;;;;;;5049472;28;19965;-51
2022/01/13 09:57:32;;;;;;;;;;;6.40;99.90;;;;;;5038027;28;19994;-52
2022/01/13 10:00:00;;;;;;;;;;;6.30;99.90;;;;;;5031487;28;19981;-48
2022/01/13 10:02:26;;;;;;;;;;;6.40;99.90;;;;;;5063408;28;20532;-51
2022/01/13 10:04:56;;;;;;;;;;;6.40;99.90;;;;;;5064670;28;19923;-49
2022/01/13 10:07:40;;;;;;;;;;;6.40;99.90;;;;;;5032571;28;20073;-52
2022/01/13 10:10:07;;;;;;;;;;;6.30;99.90;;;;;;5063921;28;19917;-52
2022/01/13 10:12:38;;;;;;;;;;;6.30;99.90;;;;;;5082377;28;20239;-50
2022/01/13 10:17:44;;;;;;;;;;;6.40;99.90;;;;;;5047563;28;19924;-50
2022/01/13 10:20:11;;;;;;;;;;;6.40;99.90;;;;;;5065538;28;19946;-52
2022/01/13 10:22:37;;;;;;;;;;;6.40;99.90;;;;;;5051205;28;19921;-48
2022/01/13 10:25:03;;;;;;;;;;;6.40;99.90;;;;;;5048769;28;19920;-50
2022/01/13 10:27:29;;;;;;;;;;;6.40;99.90;;;;;;5071200;28;20286;-52
2022/01/13 10:29:57;;;;;;;;;;;6.40;99.90;;;;;;5053610;28;20350;-49
2022/01/13 10:32:24;;;;;;;;;;;6.40;99.90;;;;;;5051235;28;19923;-49
2022/01/13 10:34:58;;;;;;;;;;;6.40;99.90;;;;;;5065622;28;20330;-52
2022/01/13 10:37:30;;;;;;;;;;;6.40;99.90;;;;;;5063870;28;19963;-50
2022/01/13 10:40:01;;;;;;;;;;;6.40;99.90;;;;;;5053535;28;19916;-50
2022/01/13 10:45:09;;;;;;;;;;;6.40;99.90;;;;;;5069632;28;20365;-51
2022/01/13 10:47:35;;;;;;;;;;;6.40;99.90;;;;;;5048812;28;19917;-51
2022/01/13 10:50:03;;;;;;;;;;;6.40;99.90;;;;;;5077103;28;19916;-52
2022/01/13 10:52:28;;;;;;;;;;;6.40;99.90;;;;;;5054872;28;19916;-51
2022/01/13 10:54:58;;;;;;;;;;;6.40;99.90;;;;;;5031153;28;19934;-52
2022/01/13 10:57:25;;;;;;;;;;;6.40;99.90;;;;;;5062056;28;19926;-50
2022/01/13 10:59:51;;;;;;;;;;;6.50;99.90;;;;;;5066001;28;19924;-52
2022/01/13 11:02:18;;;;;;;;;;;6.50;99.90;;;;;;5068465;28;20011;-51
2022/01/13 11:04:45;;;;;;;;;;;6.50;99.90;;;;;;5068266;28;19924;-51
2022/01/13 11:07:12;;;;;;;;;;;6.50;99.90;;;;;;5050102;28;19947;-51
2022/01/13 11:09:42;;;;;;;;;;;6.50;99.90;;;;;;5031914;28;19924;-51
2022/01/13 11:12:12;;;;;;;;;;;6.50;99.90;;;;;;5053044;28;19970;-48
2022/01/13 11:14:42;;;;;;;;;;;6.50;99.90;;;;;;5066560;28;19966;-51
2022/01/13 11:17:11;;;;;;;;;;;6.50;99.90;;;;;;5069256;28;19924;-51
2022/01/13 11:19:44;;;;;;;;;;;6.50;99.90;;;;;;5050459;28;19994;-52
2022/01/13 11:22:12;;;;;;;;;;;6.50;99.90;;;;;;5070691;28;20353;-49
2022/01/13 11:24:38;;;;;;;;;;;6.50;99.90;;;;;;5071088;28;19921;-51
2022/01/13 11:27:05;;;;;;;;;;;6.50;99.90;;;;;;5050807;28;19927;-51
2022/01/13 11:29:31;;;;;;;;;;;6.50;99.90;;;;;;5048460;28;19924;-49
2022/01/13 11:31:57;;;;;;;;;;;6.50;99.90;;;;;;5062978;28;20290;-53
2022/01/13 11:34:24;;;;;;;;;;;6.50;99.90;;;;;;5066275;28;19923;-52
2022/01/13 11:36:50;;;;;;;;;;;6.60;99.90;;;;;;5046916;28;19943;-49
2022/01/13 11:39:16;;;;;;;;;;;6.60;99.90;;;;;;5068561;28;20006;-51
2022/01/13 11:42:01;;;;;;;;;;;6.60;99.90;;;;;;5049459;28;20039;-51
2022/01/13 11:44:27;;;;;;;;;;;6.60;99.90;;;;;;5051864;28;19998;-52
2022/01/13 11:46:53;;;;;;;;;;;6.60;99.90;;;;;;5049080;28;20003;-49
2022/01/13 11:49:23;;;;;;;;;;;6.70;99.90;;;;;;5062654;28;19942;-54
2022/01/13 11:51:58;;;;;;;;;;;6.60;99.90;;;;;;5067710;28;19916;-51
2022/01/13 11:54:25;;;;;;;;;;;6.70;99.90;;;;;;5040785;28;19924;-50
2022/01/13 11:57:10;;;;;;;;;;;6.70;99.90;;;;;;5064209;28;19917;-52
2022/01/13 11:59:36;;;;;;;;;;;6.70;99.90;;;;;;5065919;28;19930;-51
2022/01/13 12:02:20;;;;;;;;;;;6.70;99.90;;;;;;5066793;28;19966;-50
2022/01/13 12:04:58;;;;;;;;;;;6.70;99.90;;;;;;5049560;28;19925;-50
2022/01/13 12:07:37;;;;;;;;;;;6.70;99.90;;;;;;5065012;28;19927;-49
2022/01/13 12:10:06;;;;;;;;;;;6.70;99.90;;;;;;5047334;28;19916;-52
2022/01/13 12:12:46;;;;;;;;;;;6.70;99.90;;;;;;5064607;28;19916;-52
2022/01/13 12:15:13;;;;;;;;;;;6.70;99.90;;;;;;5045072;28;19924;-52
2022/01/13 12:17:44;;;;;;;;;;;6.80;99.90;;;;;;5047960;28;19921;-49
2022/01/13 12:20:27;;;;;;;;;;;6.70;99.90;;;;;;5066371;28;20054;-52
2022/01/13 12:23:35;;;;;;;;;;;6.70;99.90;;;;;;5067338;28;19953;-51
2022/01/13 12:25:42;;;;;;;;;;;6.70;99.90;;;;;;5060292;28;20602;-52
2022/01/13 12:28:13;;;;;;;;;;;6.80;99.90;;;;;;5065590;28;19920;-50
2022/01/13 12:30:40;;;;;;;;;;;6.70;99.90;;;;;;5056702;28;20363;-51
2022/01/13 12:33:07;;;;;;;;;;;6.70;99.90;;;;;;5050571;28;19924;-52
2022/01/13 12:35:47;;;;;;;;;;;6.80;99.90;;;;;;5053992;28;19924;-50
2022/01/13 12:38:15;;;;;;;;;;;6.80;99.90;;;;;;5066729;28;19992;-52
2022/01/13 12:40:46;;;;;;;;;;;6.80;99.90;;;;;;5064754;28;19924;-52
2022/01/13 12:43:23;;;;;;;;;;;6.80;99.90;;;;;;5065984;28;19924;-51
2022/01/13 12:45:49;;;;;;;;;;;6.80;99.90;;;;;;5063921;28;19949;-52
2022/01/13 12:48:15;;;;;;;;;;;6.80;99.90;;;;;;5034035;28;19976;-49
2022/01/13 12:50:42;;;;;;;;;;;6.90;99.90;;;;;;5051142;28;20012;-48
2022/01/13 12:53:16;;;;;;;;;;;6.90;99.90;;;;;;5065722;28;19916;-52
2022/01/13 12:55:44;;;;;;;;;;;6.90;99.90;;;;;;5079840;28;19924;-52
2022/01/13 12:58:10;;;;;;;;;;;6.90;99.90;;;;;;5054649;28;19994;-50
2022/01/13 13:00:36;;;;;;;;;;;7.00;99.90;;;;;;5065596;28;19920;-52
2022/01/13 13:03:06;;;;;;;;;;;7.00;99.90;;;;;;5052752;28;20393;-50
2022/01/13 13:05:35;;;;;;;;;;;7.00;99.90;;;;;;5050261;28;19966;-51
2022/01/13 13:08:01;;;;;;;;;;;7.10;99.90;;;;;;5067410;28;19931;-52
2022/01/13 13:10:29;;;;;;;;;;;7.10;99.90;;;;;;5052363;28;20018;-52
2022/01/13 13:12:55;;;;;;;;;;;7.10;99.90;;;;;;5064303;28;20011;-51
2022/01/13 13:17:49;;;;;;;;;;;7.20;99.90;;;;;;5068352;28;19924;-51
2022/01/13 13:20:34;;;;;;;;;;;7.30;99.90;;;;;;5036722;28;20478;-52
2022/01/13 13:23:06;;;;;;;;;;;7.30;99.90;;;;;;5063667;28;20031;-48
2022/01/13 13:25:51;;;;;;;;;;;7.30;99.90;;;;;;5066360;28;19928;-50
2022/01/13 13:28:25;;;;;;;;;;;7.30;99.90;;;;;;5064303;28;19973;-51
2022/01/13 13:30:52;;;;;;;;;;;7.30;99.90;;;;;;5066428;28;19923;-49
2022/01/13 13:33:28;;;;;;;;;;;7.30;99.90;;;;;;5049753;28;20248;-51
2022/01/13 13:36:05;;;;;;;;;;;7.40;99.90;;;;;;5044480;28;19924;-52
2022/01/13 13:38:30;;;;;;;;;;;7.40;99.90;;;;;;5068057;28;19924;-51
2022/01/13 13:40:56;;;;;;;;;;;7.40;99.90;;;;;;5061081;28;20316;-49
2022/01/13 13:43:29;;;;;;;;;;;7.40;99.90;;;;;;5045448;28;19928;-49
2022/01/13 13:46:01;;;;;;;;;;;7.40;99.90;;;;;;5066640;28;19920;-48
2022/01/13 13:48:27;;;;;;;;;;;7.40;99.90;;;;;;5029626;28;19917;-52
2022/01/13 13:50:53;;;;;;;;;;;7.40;99.90;;;;;;5060702;28;19969;-48
2022/01/13 13:53:19;;;;;;;;;;;7.40;99.90;;;;;;5042497;28;19920;-49
2022/01/13 13:56:04;;;;;;;;;;;7.40;99.90;;;;;;5069431;28;20049;-50
2022/01/13 13:58:30;;;;;;;;;;;7.40;99.90;;;;;;5067906;28;20003;-48
2022/01/13 14:00:59;;;;;;;;;;;7.30;99.90;;;;;;5064084;28;19924;-50
2022/01/13 14:03:38;;;;;;;;;;;7.40;99.90;;;;;;5048821;28;19973;-52
2022/01/13 14:06:04;;;;;;;;;;;7.30;99.90;;;;;;5069777;28;19979;-53
2022/01/13 14:08:29;;;;;;;;;;;7.30;99.90;;;;;;5066963;28;19932;-51
2022/01/13 14:11:08;;;;;;;;;;;7.30;99.90;;;;;;5033425;28;19916;-52
2022/01/13 14:13:34;;;;;;;;;;;7.30;99.90;;;;;;5068330;28;19916;-53
2022/01/13 14:16:00;;;;;;;;;;;7.30;99.90;;;;;;5052722;28;19952;-52
2022/01/13 14:18:26;;;;;;;;;;;7.30;99.90;;;;;;5069565;28;20366;-50
2022/01/13 14:21:00;;;;;;;;;;;7.30;99.90;;;;;;5070104;28;20485;-49
2022/01/13 14:23:27;;;;;;;;;;;7.30;99.90;;;;;;5065839;28;20005;-53
2022/01/13 14:26:00;;;;;;;;;;;7.30;99.90;;;;;;5068834;28;20358;-52
2022/01/13 14:28:27;;;;;;;;;;;7.30;99.90;;;;;;5034634;28;19930;-52
2022/01/13 14:31:13;;;;;;;;;;;7.30;99.90;;;;;;5036232;28;19920;-51
2022/01/13 14:33:40;;;;;;;;;;;7.30;99.90;;;;;;5071523;28;19920;-53
2022/01/13 14:36:09;;;;;;;;;;;7.30;99.90;;;;;;5066139;28;20028;-51
2022/01/13 14:38:52;;;;;;;;;;;7.30;99.90;;;;;;5051486;28;20033;-52
2022/01/13 14:41:26;;;;;;;;;;;7.30;99.90;;;;;;5068904;28;19916;-52
2022/01/13 14:44:20;;;;;;;;;;;7.30;99.90;;;;;;5087585;28;20023;-52
2022/01/13 14:46:46;;;;;;;;;;;7.30;99.90;;;;;;5055429;28;19917;-50
2022/01/13 14:49:13;;;;;;;;;;;7.30;99.90;;;;;;5067324;28;19959;-51
2022/01/13 14:51:42;;;;;;;;;;;7.30;99.90;;;;;;5071992;28;20286;-52
2022/01/13 14:54:08;;;;;;;;;;;7.30;99.90;;;;;;5036535;28;20299;-53
2022/01/13 14:59:42;;;;;;;;;;;7.30;99.90;;;;;;5051488;28;19974;-53